sensor_id;sensor_type;location;lat;lon;timestamp;P1;durP1;ratioP1;P2;durP2;ratioP2
68108;SDS011;54893;49.864;19.084;2022-07-12T00:03:00;8.90;;;4.33;;
68108;SDS011;54893;49.864;19.084;2022-07-12T00:08:01;8.57;;;4.20;;
68108;SDS011;54893;49.864;19.084;2022-07-12T00:13:02;8.87;;;4.10;;
68108;SDS011;54893;49.864;19.084;2022-07-12T00:18:03;8.75;;;4.10;;
68108;SDS011;54893;49.864;19.084;2022-07-12T00:23:03;8.50;;;4.13;;
68108;SDS011;54893;49.864;19.084;2022-07-12T00:28:04;10.10;;;3.85;;
68108;SDS011;54893;49.864;19.084;2022-07-12T00:33:04;10.40;;;4.33;;
68108;SDS011;54893;49.864;19.084;2022-07-12T00:38:04;8.87;;;4.30;;
68108;SDS011;54893;49.864;19.084;2022-07-12T00:43:05;9.70;;;3.93;;
68108;SDS011;54893;49.864;19.084;2022-07-12T00:48:05;10.43;;;3.80;;
68108;SDS011;54893;49.864;19.084;2022-07-12T00:53:06;13.60;;;4.20;;
68108;SDS011;54893;49.864;19.084;2022-07-12T00:58:07;10.07;;;3.88;;
68108;SDS011;54893;49.864;19.084;2022-07-12T01:03:08;7.00;;;3.50;;
68108;SDS011;54893;49.864;19.084;2022-07-12T01:08:08;7.10;;;3.20;;
68108;SDS011;54893;49.864;19.084;2022-07-12T01:13:09;7.07;;;3.43;;
68108;SDS011;54893;49.864;19.084;2022-07-12T01:18:09;6.33;;;3.20;;
68108;SDS011;54893;49.864;19.084;2022-07-12T01:23:11;8.50;;;3.20;;
68108;SDS011;54893;49.864;19.084;2022-07-12T01:28:12;7.97;;;3.00;;
68108;SDS011;54893;49.864;19.084;2022-07-12T01:33:12;7.57;;;2.80;;
68108;SDS011;54893;49.864;19.084;2022-07-12T01:38:13;7.50;;;2.70;;
68108;SDS011;54893;49.864;19.084;2022-07-12T01:43:14;7.40;;;3.30;;
68108;SDS011;54893;49.864;19.084;2022-07-12T01:48:16;6.05;;;2.67;;
68108;SDS011;54893;49.864;19.084;2022-07-12T01:53:17;8.33;;;2.70;;
68108;SDS011;54893;49.864;19.084;2022-07-12T01:58:18;6.63;;;2.58;;
68108;SDS011;54893;49.864;19.084;2022-07-12T02:03:19;7.13;;;2.80;;
68108;SDS011;54893;49.864;19.084;2022-07-12T02:08:20;8.23;;;2.50;;
68108;SDS011;54893;49.864;19.084;2022-07-12T02:13:20;4.80;;;2.57;;
68108;SDS011;54893;49.864;19.084;2022-07-12T02:18:21;6.27;;;2.30;;
68108;SDS011;54893;49.864;19.084;2022-07-12T02:23:21;6.53;;;2.57;;
68108;SDS011;54893;49.864;19.084;2022-07-12T02:28:21;7.28;;;2.60;;
68108;SDS011;54893;49.864;19.084;2022-07-12T02:33:22;6.17;;;2.30;;
68108;SDS011;54893;49.864;19.084;2022-07-12T02:38:22;9.10;;;2.40;;
68108;SDS011;54893;49.864;19.084;2022-07-12T02:43:23;4.50;;;2.40;;
68108;SDS011;54893;49.864;19.084;2022-07-12T02:48:25;6.97;;;2.95;;
68108;SDS011;54893;49.864;19.084;2022-07-12T02:53:25;6.67;;;2.40;;
68108;SDS011;54893;49.864;19.084;2022-07-12T02:58:26;4.90;;;2.10;;
68108;SDS011;54893;49.864;19.084;2022-07-12T03:03:27;5.20;;;2.50;;
68108;SDS011;54893;49.864;19.084;2022-07-12T03:08:27;5.60;;;2.37;;
68108;SDS011;54893;49.864;19.084;2022-07-12T03:13:28;7.00;;;2.97;;
68108;SDS011;54893;49.864;19.084;2022-07-12T03:18:28;8.03;;;2.83;;
68108;SDS011;54893;49.864;19.084;2022-07-12T03:23:28;7.73;;;3.37;;
68108;SDS011;54893;49.864;19.084;2022-07-12T03:28:29;11.93;;;3.60;;
68108;SDS011;54893;49.864;19.084;2022-07-12T03:33:29;12.85;;;3.47;;
68108;SDS011;54893;49.864;19.084;2022-07-12T03:38:29;7.00;;;3.30;;
68108;SDS011;54893;49.864;19.084;2022-07-12T03:43:30;7.90;;;3.50;;
68108;SDS011;54893;49.864;19.084;2022-07-12T03:48:30;8.60;;;3.42;;
68108;SDS011;54893;49.864;19.084;2022-07-12T03:53:31;7.03;;;3.40;;
68108;SDS011;54893;49.864;19.084;2022-07-12T03:58:31;6.80;;;3.50;;
68108;SDS011;54893;49.864;19.084;2022-07-12T04:03:31;7.70;;;3.57;;
68108;SDS011;54893;49.864;19.084;2022-07-12T04:08:32;6.10;;;3.10;;
68108;SDS011;54893;49.864;19.084;2022-07-12T04:13:32;7.33;;;3.27;;
68108;SDS011;54893;49.864;19.084;2022-07-12T04:18:33;8.17;;;3.97;;
68108;SDS011;54893;49.864;19.084;2022-07-12T04:23:33;10.47;;;3.60;;
68108;SDS011;54893;49.864;19.084;2022-07-12T04:28:34;9.60;;;4.37;;
68108;SDS011;54893;49.864;19.084;2022-07-12T04:33:35;9.27;;;4.43;;
68108;SDS011;54893;49.864;19.084;2022-07-12T04:38:35;9.20;;;4.37;;
68108;SDS011;54893;49.864;19.084;2022-07-12T04:43:36;8.87;;;3.63;;
68108;SDS011;54893;49.864;19.084;2022-07-12T04:48:36;9.17;;;3.87;;
68108;SDS011;54893;49.864;19.084;2022-07-12T04:53:37;9.30;;;3.93;;
68108;SDS011;54893;49.864;19.084;2022-07-12T04:58:37;8.93;;;4.00;;
68108;SDS011;54893;49.864;19.084;2022-07-12T05:03:38;9.70;;;3.77;;
68108;SDS011;54893;49.864;19.084;2022-07-12T05:08:38;10.93;;;4.10;;
68108;SDS011;54893;49.864;19.084;2022-07-12T05:13:39;8.87;;;3.90;;
68108;SDS011;54893;49.864;19.084;2022-07-12T05:18:39;10.23;;;3.77;;
68108;SDS011;54893;49.864;19.084;2022-07-12T05:23:40;8.43;;;3.90;;
68108;SDS011;54893;49.864;19.084;2022-07-12T05:28:40;8.83;;;3.90;;
68108;SDS011;54893;49.864;19.084;2022-07-12T05:33:40;8.30;;;3.93;;
68108;SDS011;54893;49.864;19.084;2022-07-12T05:38:41;8.75;;;4.53;;
68108;SDS011;54893;49.864;19.084;2022-07-12T05:43:41;10.98;;;4.53;;
68108;SDS011;54893;49.864;19.084;2022-07-12T05:48:41;11.38;;;5.35;;
68108;SDS011;54893;49.864;19.084;2022-07-12T05:53:42;10.33;;;5.20;;
68108;SDS011;54893;49.864;19.084;2022-07-12T05:58:42;10.87;;;5.27;;
68108;SDS011;54893;49.864;19.084;2022-07-12T06:03:43;11.77;;;4.67;;
68108;SDS011;54893;49.864;19.084;2022-07-12T06:08:43;10.02;;;4.90;;
68108;SDS011;54893;49.864;19.084;2022-07-12T06:13:43;11.70;;;4.60;;
68108;SDS011;54893;49.864;19.084;2022-07-12T06:18:44;9.03;;;4.40;;
68108;SDS011;54893;49.864;19.084;2022-07-12T06:23:44;11.10;;;4.33;;
68108;SDS011;54893;49.864;19.084;2022-07-12T06:28:45;8.90;;;4.07;;
68108;SDS011;54893;49.864;19.084;2022-07-12T06:33:45;8.57;;;4.00;;
68108;SDS011;54893;49.864;19.084;2022-07-12T06:38:45;6.83;;;3.20;;
68108;SDS011;54893;49.864;19.084;2022-07-12T06:43:46;8.40;;;4.20;;
68108;SDS011;54893;49.864;19.084;2022-07-12T06:48:46;8.90;;;4.07;;
68108;SDS011;54893;49.864;19.084;2022-07-12T06:53:46;8.47;;;4.10;;
68108;SDS011;54893;49.864;19.084;2022-07-12T06:58:47;6.97;;;4.00;;
68108;SDS011;54893;49.864;19.084;2022-07-12T07:03:47;6.40;;;3.60;;
68108;SDS011;54893;49.864;19.084;2022-07-12T07:08:47;5.53;;;3.33;;
68108;SDS011;54893;49.864;19.084;2022-07-12T07:13:48;8.48;;;3.65;;
68108;SDS011;54893;49.864;19.084;2022-07-12T07:18:48;7.30;;;4.00;;
68108;SDS011;54893;49.864;19.084;2022-07-12T07:23:48;6.73;;;3.90;;
68108;SDS011;54893;49.864;19.084;2022-07-12T07:28:51;5.55;;;3.10;;
68108;SDS011;54893;49.864;19.084;2022-07-12T07:34:29;7.38;;;3.63;;
68108;SDS011;54893;49.864;19.084;2022-07-12T07:39:30;7.30;;;3.27;;
68108;SDS011;54893;49.864;19.084;2022-07-12T07:44:30;7.07;;;2.70;;
68108;SDS011;54893;49.864;19.084;2022-07-12T07:49:30;5.40;;;2.73;;
68108;SDS011;54893;49.864;19.084;2022-07-12T07:54:31;5.07;;;2.57;;
68108;SDS011;54893;49.864;19.084;2022-07-12T07:59:31;6.83;;;2.30;;
68108;SDS011;54893;49.864;19.084;2022-07-12T08:04:31;4.60;;;2.27;;
68108;SDS011;54893;49.864;19.084;2022-07-12T08:09:32;4.30;;;2.00;;
68108;SDS011;54893;49.864;19.084;2022-07-12T08:14:32;5.60;;;2.20;;
68108;SDS011;54893;49.864;19.084;2022-07-12T08:19:32;6.47;;;2.17;;
68108;SDS011;54893;49.864;19.084;2022-07-12T08:24:33;5.53;;;1.90;;
68108;SDS011;54893;49.864;19.084;2022-07-12T08:29:33;3.80;;;2.00;;
68108;SDS011;54893;49.864;19.084;2022-07-12T08:34:34;5.80;;;2.00;;
68108;SDS011;54893;49.864;19.084;2022-07-12T08:39:34;7.07;;;1.23;;
68108;SDS011;54893;49.864;19.084;2022-07-12T08:44:35;5.73;;;1.17;;
68108;SDS011;54893;49.864;19.084;2022-07-12T08:49:35;3.10;;;0.93;;
68108;SDS011;54893;49.864;19.084;2022-07-12T08:54:39;3.42;;;1.17;;
68108;SDS011;54893;49.864;19.084;2022-07-12T08:59:39;2.45;;;1.02;;
68108;SDS011;54893;49.864;19.084;2022-07-12T09:04:46;2.50;;;1.00;;
68108;SDS011;54893;49.864;19.084;2022-07-12T09:09:47;3.57;;;0.90;;
68108;SDS011;54893;49.864;19.084;2022-07-12T09:14:51;2.47;;;1.00;;
68108;SDS011;54893;49.864;19.084;2022-07-12T09:19:55;2.75;;;0.80;;
68108;SDS011;54893;49.864;19.084;2022-07-12T09:24:55;2.30;;;0.75;;
68108;SDS011;54893;49.864;19.084;2022-07-12T09:29:56;2.10;;;0.90;;
68108;SDS011;54893;49.864;19.084;2022-07-12T09:34:57;2.50;;;0.90;;
68108;SDS011;54893;49.864;19.084;2022-07-12T09:40:16;2.00;;;0.80;;
68108;SDS011;54893;49.864;19.084;2022-07-12T09:45:17;2.78;;;0.95;;
68108;SDS011;54893;49.864;19.084;2022-07-12T09:50:18;2.40;;;0.97;;
68108;SDS011;54893;49.864;19.084;2022-07-12T09:55:18;4.87;;;1.20;;
68108;SDS011;54893;49.864;19.084;2022-07-12T10:00:24;2.90;;;1.25;;
68108;SDS011;54893;49.864;19.084;2022-07-12T10:05:25;2.80;;;0.90;;
68108;SDS011;54893;49.864;19.084;2022-07-12T10:10:27;2.78;;;1.00;;
68108;SDS011;54893;49.864;19.084;2022-07-12T10:15:28;2.33;;;1.00;;
68108;SDS011;54893;49.864;19.084;2022-07-12T10:20:31;2.78;;;1.00;;
68108;SDS011;54893;49.864;19.084;2022-07-12T10:25:32;3.63;;;1.00;;
68108;SDS011;54893;49.864;19.084;2022-07-12T10:30:42;3.13;;;1.00;;
68108;SDS011;54893;49.864;19.084;2022-07-12T10:36:03;2.83;;;0.90;;
68108;SDS011;54893;49.864;19.084;2022-07-12T10:41:18;2.50;;;0.82;;
68108;SDS011;54893;49.864;19.084;2022-07-12T10:46:22;4.20;;;1.50;;
68108;SDS011;54893;49.864;19.084;2022-07-12T10:51:23;2.57;;;0.83;;
68108;SDS011;54893;49.864;19.084;2022-07-12T10:56:24;6.07;;;0.90;;
68108;SDS011;54893;49.864;19.084;2022-07-12T11:01:27;3.55;;;0.85;;
68108;SDS011;54893;49.864;19.084;2022-07-12T11:06:29;4.70;;;1.33;;
68108;SDS011;54893;49.864;19.084;2022-07-12T11:11:30;5.67;;;1.23;;
68108;SDS011;54893;49.864;19.084;2022-07-12T11:16:46;3.75;;;1.10;;
68108;SDS011;54893;49.864;19.084;2022-07-12T11:21:48;5.47;;;1.20;;
68108;SDS011;54893;49.864;19.084;2022-07-12T11:26:55;5.63;;;1.43;;
68108;SDS011;54893;49.864;19.084;2022-07-12T11:32:14;5.80;;;1.60;;
68108;SDS011;54893;49.864;19.084;2022-07-12T11:37:14;3.33;;;1.40;;
68108;SDS011;54893;49.864;19.084;2022-07-12T11:42:15;4.47;;;1.20;;
68108;SDS011;54893;49.864;19.084;2022-07-12T11:47:16;3.70;;;1.20;;
68108;SDS011;54893;49.864;19.084;2022-07-12T11:52:18;3.55;;;1.30;;
68108;SDS011;54893;49.864;19.084;2022-07-12T11:57:20;4.13;;;1.33;;
68108;SDS011;54893;49.864;19.084;2022-07-12T12:02:23;3.88;;;1.27;;
68108;SDS011;54893;49.864;19.084;2022-07-12T12:07:23;3.13;;;1.40;;
68108;SDS011;54893;49.864;19.084;2022-07-12T12:12:24;6.93;;;1.60;;
68108;SDS011;54893;49.864;19.084;2022-07-12T12:17:24;4.77;;;1.57;;
68108;SDS011;54893;49.864;19.084;2022-07-12T12:22:34;6.60;;;1.87;;
68108;SDS011;54893;49.864;19.084;2022-07-12T12:27:39;3.15;;;1.27;;
68108;SDS011;54893;49.864;19.084;2022-07-12T12:32:54;6.85;;;1.95;;
68108;SDS011;54893;49.864;19.084;2022-07-12T12:37:59;3.47;;;1.43;;
68108;SDS011;54893;49.864;19.084;2022-07-12T12:43:19;4.57;;;1.35;;
68108;SDS011;54893;49.864;19.084;2022-07-12T12:48:21;5.00;;;1.77;;
68108;SDS011;54893;49.864;19.084;2022-07-12T12:53:24;4.57;;;1.50;;
68108;SDS011;54893;49.864;19.084;2022-07-12T12:58:25;4.13;;;1.77;;
68108;SDS011;54893;49.864;19.084;2022-07-12T13:03:26;7.28;;;2.38;;
68108;SDS011;54893;49.864;19.084;2022-07-12T13:08:26;5.97;;;2.10;;
68108;SDS011;54893;49.864;19.084;2022-07-12T13:13:27;7.13;;;2.40;;
68108;SDS011;54893;49.864;19.084;2022-07-12T13:18:27;5.87;;;2.10;;
68108;SDS011;54893;49.864;19.084;2022-07-12T13:23:28;13.27;;;2.40;;
68108;SDS011;54893;49.864;19.084;2022-07-12T13:28:28;3.80;;;1.90;;
68108;SDS011;54893;49.864;19.084;2022-07-12T13:33:29;5.30;;;1.83;;
68108;SDS011;54893;49.864;19.084;2022-07-12T13:38:29;3.80;;;1.20;;
68108;SDS011;54893;49.864;19.084;2022-07-12T13:43:30;4.10;;;0.93;;
68108;SDS011;54893;49.864;19.084;2022-07-12T13:48:31;3.43;;;1.27;;
68108;SDS011;54893;49.864;19.084;2022-07-12T13:53:31;5.70;;;1.00;;
68108;SDS011;54893;49.864;19.084;2022-07-12T13:58:32;3.80;;;1.10;;
68108;SDS011;54893;49.864;19.084;2022-07-12T14:03:32;2.93;;;1.10;;
68108;SDS011;54893;49.864;19.084;2022-07-12T14:08:32;3.53;;;1.00;;
68108;SDS011;54893;49.864;19.084;2022-07-12T14:13:33;5.07;;;1.17;;
68108;SDS011;54893;49.864;19.084;2022-07-12T14:18:33;3.93;;;1.27;;
68108;SDS011;54893;49.864;19.084;2022-07-12T14:23:34;4.63;;;1.37;;
68108;SDS011;54893;49.864;19.084;2022-07-12T14:28:34;3.63;;;1.20;;
68108;SDS011;54893;49.864;19.084;2022-07-12T14:33:35;4.27;;;1.30;;
68108;SDS011;54893;49.864;19.084;2022-07-12T14:38:35;5.00;;;1.50;;
68108;SDS011;54893;49.864;19.084;2022-07-12T14:43:36;7.20;;;1.70;;
68108;SDS011;54893;49.864;19.084;2022-07-12T14:48:36;6.80;;;1.57;;
68108;SDS011;54893;49.864;19.084;2022-07-12T14:53:37;13.50;;;3.47;;
68108;SDS011;54893;49.864;19.084;2022-07-12T14:58:37;7.00;;;1.97;;
68108;SDS011;54893;49.864;19.084;2022-07-12T15:03:37;7.80;;;2.50;;
68108;SDS011;54893;49.864;19.084;2022-07-12T15:08:38;7.03;;;2.53;;
68108;SDS011;54893;49.864;19.084;2022-07-12T15:13:38;4.87;;;2.20;;
68108;SDS011;54893;49.864;19.084;2022-07-12T15:18:39;6.77;;;2.60;;
68108;SDS011;54893;49.864;19.084;2022-07-12T15:23:39;4.90;;;2.30;;
68108;SDS011;54893;49.864;19.084;2022-07-12T15:28:53;6.70;;;2.60;;
68108;SDS011;54893;49.864;19.084;2022-07-12T15:33:57;5.57;;;2.20;;
68108;SDS011;54893;49.864;19.084;2022-07-12T15:38:58;8.13;;;2.80;;
68108;SDS011;54893;49.864;19.084;2022-07-12T15:43:58;8.63;;;2.73;;
68108;SDS011;54893;49.864;19.084;2022-07-12T15:48:59;9.17;;;2.33;;
68108;SDS011;54893;49.864;19.084;2022-07-12T15:53:59;5.20;;;2.10;;
68108;SDS011;54893;49.864;19.084;2022-07-12T15:59:00;3.40;;;1.70;;
68108;SDS011;54893;49.864;19.084;2022-07-12T16:04:00;11.37;;;5.77;;
68108;SDS011;54893;49.864;19.084;2022-07-12T16:09:04;7.50;;;2.80;;
68108;SDS011;54893;49.864;19.084;2022-07-12T16:14:06;10.38;;;4.78;;
68108;SDS011;54893;49.864;19.084;2022-07-12T16:19:06;7.53;;;4.00;;
68108;SDS011;54893;49.864;19.084;2022-07-12T16:24:06;6.60;;;2.57;;
68108;SDS011;54893;49.864;19.084;2022-07-12T16:29:07;6.75;;;2.90;;
68108;SDS011;54893;49.864;19.084;2022-07-12T16:34:07;9.20;;;2.63;;
68108;SDS011;54893;49.864;19.084;2022-07-12T16:39:08;5.00;;;2.43;;
68108;SDS011;54893;49.864;19.084;2022-07-12T16:44:09;7.65;;;2.53;;
68108;SDS011;54893;49.864;19.084;2022-07-12T16:49:09;6.93;;;2.60;;
68108;SDS011;54893;49.864;19.084;2022-07-12T16:54:10;5.07;;;2.20;;
68108;SDS011;54893;49.864;19.084;2022-07-12T16:59:10;7.15;;;3.00;;
68108;SDS011;54893;49.864;19.084;2022-07-12T17:04:10;6.50;;;2.70;;
68108;SDS011;54893;49.864;19.084;2022-07-12T17:09:12;9.02;;;2.60;;
68108;SDS011;54893;49.864;19.084;2022-07-12T17:14:12;7.47;;;2.67;;
68108;SDS011;54893;49.864;19.084;2022-07-12T17:19:12;8.33;;;2.50;;
68108;SDS011;54893;49.864;19.084;2022-07-12T17:24:14;7.32;;;2.70;;
68108;SDS011;54893;49.864;19.084;2022-07-12T17:29:15;5.10;;;2.50;;
68108;SDS011;54893;49.864;19.084;2022-07-12T17:34:15;5.53;;;2.50;;
68108;SDS011;54893;49.864;19.084;2022-07-12T17:39:15;5.07;;;2.00;;
68108;SDS011;54893;49.864;19.084;2022-07-12T17:44:16;4.47;;;2.07;;
68108;SDS011;54893;49.864;19.084;2022-07-12T17:49:18;6.87;;;1.70;;
68108;SDS011;54893;49.864;19.084;2022-07-12T17:54:18;5.20;;;1.80;;
68108;SDS011;54893;49.864;19.084;2022-07-12T17:59:18;4.37;;;1.70;;
68108;SDS011;54893;49.864;19.084;2022-07-12T18:04:19;5.97;;;1.87;;
68108;SDS011;54893;49.864;19.084;2022-07-12T18:09:19;3.93;;;1.73;;
68108;SDS011;54893;49.864;19.084;2022-07-12T18:14:20;3.40;;;1.60;;
68108;SDS011;54893;49.864;19.084;2022-07-12T18:19:39;6.00;;;1.70;;
68108;SDS011;54893;49.864;19.084;2022-07-12T18:24:39;5.63;;;1.70;;
68108;SDS011;54893;49.864;19.084;2022-07-12T18:29:39;5.00;;;1.83;;
68108;SDS011;54893;49.864;19.084;2022-07-12T18:34:40;4.47;;;1.80;;
68108;SDS011;54893;49.864;19.084;2022-07-12T18:39:41;4.10;;;1.60;;
68108;SDS011;54893;49.864;19.084;2022-07-12T18:44:41;4.83;;;1.97;;
68108;SDS011;54893;49.864;19.084;2022-07-12T18:49:41;4.23;;;1.80;;
68108;SDS011;54893;49.864;19.084;2022-07-12T18:54:43;4.40;;;1.77;;
68108;SDS011;54893;49.864;19.084;2022-07-12T18:59:44;6.20;;;2.00;;
68108;SDS011;54893;49.864;19.084;2022-07-12T19:04:44;3.70;;;1.80;;
68108;SDS011;54893;49.864;19.084;2022-07-12T19:09:44;4.93;;;2.00;;
68108;SDS011;54893;49.864;19.084;2022-07-12T19:14:45;6.07;;;1.90;;
68108;SDS011;54893;49.864;19.084;2022-07-12T19:19:45;4.10;;;1.90;;
68108;SDS011;54893;49.864;19.084;2022-07-12T19:24:45;3.97;;;1.90;;
68108;SDS011;54893;49.864;19.084;2022-07-12T19:29:46;13.47;;;2.33;;
68108;SDS011;54893;49.864;19.084;2022-07-12T19:34:46;3.87;;;1.77;;
68108;SDS011;54893;49.864;19.084;2022-07-12T19:39:46;5.30;;;2.13;;
68108;SDS011;54893;49.864;19.084;2022-07-12T19:44:47;5.87;;;2.30;;
68108;SDS011;54893;49.864;19.084;2022-07-12T19:49:48;7.70;;;2.20;;
68108;SDS011;54893;49.864;19.084;2022-07-12T19:54:48;3.90;;;1.73;;
68108;SDS011;54893;49.864;19.084;2022-07-12T19:59:48;4.70;;;1.80;;
68108;SDS011;54893;49.864;19.084;2022-07-12T20:04:49;4.47;;;1.90;;
68108;SDS011;54893;49.864;19.084;2022-07-12T20:09:49;4.82;;;1.90;;
68108;SDS011;54893;49.864;19.084;2022-07-12T20:14:49;6.10;;;2.10;;
68108;SDS011;54893;49.864;19.084;2022-07-12T20:19:50;5.00;;;1.93;;
68108;SDS011;54893;49.864;19.084;2022-07-12T20:24:50;5.93;;;1.90;;
68108;SDS011;54893;49.864;19.084;2022-07-12T20:29:50;3.93;;;1.70;;
68108;SDS011;54893;49.864;19.084;2022-07-12T20:34:51;4.97;;;1.70;;
68108;SDS011;54893;49.864;19.084;2022-07-12T20:39:51;6.57;;;1.60;;
68108;SDS011;54893;49.864;19.084;2022-07-12T20:44:52;5.50;;;1.60;;
68108;SDS011;54893;49.864;19.084;2022-07-12T20:49:52;4.53;;;1.80;;
68108;SDS011;54893;49.864;19.084;2022-07-12T20:54:52;4.33;;;1.57;;
68108;SDS011;54893;49.864;19.084;2022-07-12T20:59:53;3.07;;;1.40;;
68108;SDS011;54893;49.864;19.084;2022-07-12T21:04:53;4.97;;;1.57;;
68108;SDS011;54893;49.864;19.084;2022-07-12T21:09:53;3.13;;;1.27;;
68108;SDS011;54893;49.864;19.084;2022-07-12T21:14:54;4.40;;;1.50;;
68108;SDS011;54893;49.864;19.084;2022-07-12T21:19:55;3.53;;;1.42;;
68108;SDS011;54893;49.864;19.084;2022-07-12T21:24:55;7.87;;;1.60;;
68108;SDS011;54893;49.864;19.084;2022-07-12T21:29:56;4.30;;;1.40;;
68108;SDS011;54893;49.864;19.084;2022-07-12T21:34:58;5.00;;;1.60;;
68108;SDS011;54893;49.864;19.084;2022-07-12T21:39:59;4.25;;;1.40;;
68108;SDS011;54893;49.864;19.084;2022-07-12T21:44:59;4.13;;;1.60;;
68108;SDS011;54893;49.864;19.084;2022-07-12T21:49:59;3.87;;;1.70;;
68108;SDS011;54893;49.864;19.084;2022-07-12T21:55:01;5.70;;;1.90;;
68108;SDS011;54893;49.864;19.084;2022-07-12T22:00:02;6.68;;;2.05;;
68108;SDS011;54893;49.864;19.084;2022-07-12T22:05:03;4.77;;;1.80;;
68108;SDS011;54893;49.864;19.084;2022-07-12T22:10:04;9.05;;;2.22;;
68108;SDS011;54893;49.864;19.084;2022-07-12T22:15:05;9.33;;;2.23;;
68108;SDS011;54893;49.864;19.084;2022-07-12T22:20:06;5.30;;;2.08;;
68108;SDS011;54893;49.864;19.084;2022-07-12T22:25:08;5.37;;;2.20;;
68108;SDS011;54893;49.864;19.084;2022-07-12T22:30:08;6.40;;;2.50;;
68108;SDS011;54893;49.864;19.084;2022-07-12T22:35:09;6.15;;;2.30;;
68108;SDS011;54893;49.864;19.084;2022-07-12T22:40:09;6.07;;;2.40;;
68108;SDS011;54893;49.864;19.084;2022-07-12T22:45:11;4.95;;;2.38;;
68108;SDS011;54893;49.864;19.084;2022-07-12T22:50:11;6.97;;;2.60;;
68108;SDS011;54893;49.864;19.084;2022-07-12T22:55:11;5.63;;;2.40;;
68108;SDS011;54893;49.864;19.084;2022-07-12T23:00:12;5.70;;;2.07;;
68108;SDS011;54893;49.864;19.084;2022-07-12T23:05:12;5.80;;;2.40;;
68108;SDS011;54893;49.864;19.084;2022-07-12T23:10:13;7.87;;;2.30;;
68108;SDS011;54893;49.864;19.084;2022-07-12T23:15:13;5.30;;;2.30;;
68108;SDS011;54893;49.864;19.084;2022-07-12T23:20:14;7.27;;;2.60;;
68108;SDS011;54893;49.864;19.084;2022-07-12T23:25:14;7.80;;;2.30;;
68108;SDS011;54893;49.864;19.084;2022-07-12T23:30:14;7.23;;;2.30;;
68108;SDS011;54893;49.864;19.084;2022-07-12T23:35:15;6.63;;;2.60;;
68108;SDS011;54893;49.864;19.084;2022-07-12T23:40:15;5.10;;;2.30;;
68108;SDS011;54893;49.864;19.084;2022-07-12T23:45:15;5.07;;;2.13;;
68108;SDS011;54893;49.864;19.084;2022-07-12T23:50:16;7.30;;;2.07;;
68108;SDS011;54893;49.864;19.084;2022-07-12T23:55:16;5.40;;;2.10;;
